Time;durP1;ratioP1;P1;durP2;ratioP2;P2;SDS_P1;SDS_P2;PMS_P1;PMS_P2;Temp;Humidity;BMP_temperature;BMP_pressure;BME280_temperature;BME280_humidity;BME280_pressure;Samples;Min_cycle;Max_cycle;Signal;HPM_P1;HPM_P2
2022/10/13 00:02:19;;;;;;;;;;;;;;;11.66;59.82;100551.44;4469151;32;20036;-85
2022/10/13 00:04:45;;;;;;;;;;;;;;;11.80;59.83;100556.34;4474641;32;19988;-85
2022/10/13 00:07:10;;;;;;;;;;;;;;;11.86;59.84;100551.84;4477916;32;28880;-84
2022/10/13 00:09:35;;;;;;;;;;;;;;;11.85;59.84;100550.13;4464955;32;23344;-84
2022/10/13 00:12:00;;;;;;;;;;;;;;;11.83;59.84;100554.53;4459321;32;20601;-84
2022/10/13 00:14:26;;;;;;;;;;;;;;;11.89;59.83;100553.53;4483956;32;36292;-83
2022/10/13 00:16:51;;;;;;;;;;;;;;;11.77;59.83;100544.19;4481606;32;20007;-84
2022/10/13 00:19:16;;;;;;;;;;;;;;;11.64;59.82;100546.25;4461439;32;28242;-84
2022/10/13 00:21:41;;;;;;;;;;;;;;;11.74;59.82;100554.69;4484713;32;20007;-83
2022/10/13 00:24:09;;;;;;;;;;;;;;;11.73;59.83;100546.91;4478676;32;35938;-83
2022/10/13 00:26:34;;;;;;;;;;;;;;;11.74;59.82;100554.69;4464210;32;19977;-84
2022/10/13 00:28:59;;;;;;;;;;;;;;;11.75;59.82;100552.94;4457130;32;28992;-83
2022/10/13 00:31:28;;;;;;;;;;;;;;;11.71;59.83;100551.31;4472157;32;24254;-84
2022/10/13 00:33:53;;;;;;;;;;;;;;;11.79;59.83;100552.88;4462507;32;19995;-83
2022/10/13 00:36:19;;;;;;;;;;;;;;;11.85;59.84;100557.09;4473364;32;19980;-83
2022/10/13 00:38:44;;;;;;;;;;;;;;;11.66;59.82;100556.66;4484300;32;20346;-83
2022/10/13 00:41:09;;;;;;;;;;;;;;;11.77;59.84;100552.00;4483216;32;35106;-82
2022/10/13 00:43:53;;;;;;;;;;;;;;;11.81;59.83;100555.44;4483714;32;34504;-83
2022/10/13 00:46:19;;;;;;;;;;;;;;;11.92;59.84;100551.69;4473533;32;21047;-83
2022/10/13 00:48:44;;;;;;;;;;;;;;;11.76;59.83;100539.00;4484715;32;20362;-82
2022/10/13 00:51:10;;;;;;;;;;;;;;;11.76;59.83;100546.84;4458475;32;20004;-82
2022/10/13 00:53:35;;;;;;;;;;;;;;;12.04;59.85;100554.88;4470237;32;19996;-84
2022/10/13 00:56:00;;;;;;;;;;;;;;;12.02;59.84;100554.91;4484358;32;19985;-83
2022/10/13 00:58:30;;;;;;;;;;;;;;;11.87;59.83;100542.25;4464905;32;20054;-83
2022/10/13 01:00:55;;;;;;;;;;;;;;;11.85;59.84;100538.84;4448187;32;20479;-84
2022/10/13 01:03:20;;;;;;;;;;;;;;;11.67;59.82;100545.31;4457341;32;34088;-84
2022/10/13 01:05:45;;;;;;;;;;;;;;;11.51;59.81;100542.19;4475709;32;20062;-84
2022/10/13 01:08:11;;;;;;;;;;;;;;;11.66;59.82;100539.25;4455362;32;24839;-84
2022/10/13 01:10:36;;;;;;;;;;;;;;;11.69;59.83;100547.00;4465996;32;20000;-84
2022/10/13 01:13:20;;;;;;;;;;;;;;;11.97;59.84;100542.00;4473567;32;20052;-83
2022/10/13 01:15:48;;;;;;;;;;;;;;;12.13;59.84;100539.84;4454567;32;20004;-83
2022/10/13 01:18:13;;;;;;;;;;;;;;;11.84;59.84;100547.56;4479361;32;19981;-83
2022/10/13 01:20:44;;;;;;;;;;;;;;;11.82;59.83;100546.72;4473514;32;20004;-83
2022/10/13 01:23:42;;;;;;;;;;;;;;;11.89;59.83;100549.16;4473939;32;20040;-83
2022/10/13 01:26:11;;;;;;;;;;;;;;;11.90;59.83;100547.41;4448891;32;19990;-82
2022/10/13 01:28:41;;;;;;;;;;;;;;;11.93;59.84;100544.72;4462754;32;19997;-83
2022/10/13 01:31:12;;;;;;;;;;;;;;;11.74;59.83;100543.41;4456846;32;19996;-83
2022/10/13 01:33:40;;;;;;;;;;;;;;;11.64;59.82;100543.66;4484183;32;19977;-83
2022/10/13 01:36:26;;;;;;;;;;;;;;;11.56;59.82;100542.94;4484255;32;19969;-83
2022/10/13 01:39:08;;;;;;;;;;;;;;;11.52;59.81;100537.84;4460154;32;20000;-83
2022/10/13 01:41:40;;;;;;;;;;;;;;;11.44;59.81;100538.03;4456934;32;20346;-83
2022/10/13 01:44:05;;;;;;;;;;;;;;;11.31;59.81;100536.59;4457212;32;19976;-84
2022/10/13 01:46:34;;;;;;;;;;;;;;;11.41;59.81;100534.66;4468433;32;20069;-83
2022/10/13 01:49:00;;;;;;;;;;;;;;;11.49;59.81;100537.91;4447447;32;19992;-83
2022/10/13 01:51:25;;;;;;;;;;;;;;;11.55;59.82;100532.56;4469569;32;20010;-83
2022/10/13 01:53:51;;;;;;;;;;;;;;;11.38;59.81;100528.63;4468569;32;36340;-83
2022/10/13 01:56:16;;;;;;;;;;;;;;;11.39;59.81;100532.06;4483723;32;20487;-83
2022/10/13 01:58:42;;;;;;;;;;;;;;;11.24;59.80;100527.19;4463389;32;19988;-83
2022/10/13 02:01:16;;;;;;;;;;;;;;;11.38;59.81;100528.63;4467309;32;19987;-83
2022/10/13 02:03:53;;;;;;;;;;;;;;;11.18;59.80;100527.34;4468234;32;20029;-83
2022/10/13 02:06:29;;;;;;;;;;;;;;;11.26;59.80;100521.06;4479328;32;19987;-83
2022/10/13 02:09:05;;;;;;;;;;;;;;;11.20;59.80;100521.19;4484080;32;20052;-84
2022/10/13 02:11:30;;;;;;;;;;;;;;;11.30;59.79;100524.44;4469090;32;20000;-84
2022/10/13 02:14:15;;;;;;;;;;;;;;;11.07;59.80;100525.81;4477582;32;38426;-83
2022/10/13 02:16:41;;;;;;;;;;;;;;;11.04;59.79;100525.88;4465704;32;19972;-83
2022/10/13 02:19:07;;;;;;;;;;;;;;;11.05;59.79;100531.94;4461316;32;20010;-83
2022/10/13 02:21:32;;;;;;;;;;;;;;;11.17;59.80;100534.31;4471051;32;20270;-83
2022/10/13 02:23:57;;;;;;;;;;;;;;;11.02;59.79;100530.25;4480834;32;19977;-84
2022/10/13 02:26:22;;;;;;;;;;;;;;;11.02;59.80;100525.06;4463998;32;34420;-84
2022/10/13 02:28:47;;;;;;;;;;;;;;;10.97;59.79;100528.66;4469547;32;24621;-83
2022/10/13 02:31:13;;;;;;;;;;;;;;;11.18;59.80;100528.19;4459505;32;19996;-83
2022/10/13 02:33:38;;;;;;;;;;;;;;;11.06;59.79;100524.09;4485354;32;20011;-83
2022/10/13 02:36:03;;;;;;;;;;;;;;;11.14;59.79;100526.56;4459248;32;20415;-84
2022/10/13 02:38:28;;;;;;;;;;;;;;;11.03;59.79;100523.31;4477707;32;19973;-84
2022/10/13 02:40:53;;;;;;;;;;;;;;;10.96;59.79;100527.78;4480764;32;25995;-84
2022/10/13 02:43:19;;;;;;;;;;;;;;;11.04;59.78;100519.81;4452586;32;19985;-83
2022/10/13 02:45:44;;;;;;;;;;;;;;;11.05;59.79;100517.16;4462723;32;23170;-84
2022/10/13 02:48:09;;;;;;;;;;;;;;;11.07;59.79;100517.12;4480165;32;32627;-84
2022/10/13 02:50:34;;;;;;;;;;;;;;;11.10;59.79;100519.66;4454674;32;31151;-84
2022/10/13 02:53:00;;;;;;;;;;;;;;;11.01;59.79;100525.09;4484681;32;20022;-84
2022/10/13 02:55:25;;;;;;;;;;;;;;;11.14;59.79;100523.94;4494021;32;34113;-85
2022/10/13 02:57:50;;;;;;;;;;;;;;;11.02;59.79;100519.00;4485764;32;36289;-85
2022/10/13 03:00:15;;;;;;;;;;;;;;;11.00;59.79;100529.44;4484615;32;34736;-85
2022/10/13 03:02:41;;;;;;;;;;;;;;;11.06;59.79;100524.09;4470399;32;19992;-85
2022/10/13 03:05:06;;;;;;;;;;;;;;;11.04;59.79;100525.88;4470734;32;19972;-85
2022/10/13 03:07:32;;;;;;;;;;;;;;;11.02;59.79;100527.66;4485264;32;19996;-85
2022/10/13 03:09:57;;;;;;;;;;;;;;;10.94;59.79;100526.97;4453768;32;35235;-85
2022/10/13 03:12:22;;;;;;;;;;;;;;;11.02;59.79;100522.44;4468315;32;35043;-85
2022/10/13 03:14:47;;;;;;;;;;;;;;;10.87;59.78;100525.37;4465645;32;33482;-85
2022/10/13 03:17:12;;;;;;;;;;;;;;;10.98;59.78;100522.56;4484436;32;35431;-85
2022/10/13 03:19:38;;;;;;;;;;;;;;;10.81;59.78;100529.84;4470462;32;29187;-82
2022/10/13 03:22:03;;;;;;;;;;;;;;;10.61;59.76;100525.03;4469469;32;34638;-83
2022/10/13 03:24:28;;;;;;;;;;;;;;;10.64;59.77;100527.56;4476413;32;30603;-84
2022/10/13 03:26:53;;;;;;;;;;;;;;;10.59;59.76;100525.06;4463660;32;20031;-83
2022/10/13 03:29:18;;;;;;;;;;;;;;;10.67;59.77;100523.19;4468331;32;32353;-83
2022/10/13 03:31:44;;;;;;;;;;;;;;;10.75;59.77;100523.88;4476941;32;19991;-84
2022/10/13 03:34:09;;;;;;;;;;;;;;;10.64;59.77;100522.38;4484606;32;20003;-83
2022/10/13 03:36:35;;;;;;;;;;;;;;;10.61;59.76;100517.22;4470516;32;19993;-84
2022/10/13 03:39:00;;;;;;;;;;;;;;;10.74;59.77;100521.31;4485062;32;19988;-82
2022/10/13 03:41:25;;;;;;;;;;;;;;;10.81;59.77;100514.22;4480916;32;32848;-83
2022/10/13 03:43:50;;;;;;;;;;;;;;;10.93;59.79;100514.00;4469505;32;26319;-84
2022/10/13 03:46:16;;;;;;;;;;;;;;;10.93;59.79;100520.06;4479135;32;28940;-84
2022/10/13 03:48:41;;;;;;;;;;;;;;;10.91;59.78;100508.81;4454106;32;20033;-83
2022/10/13 03:51:07;;;;;;;;;;;;;;;10.69;59.77;100512.75;4469127;32;20412;-82
2022/10/13 03:53:32;;;;;;;;;;;;;;;10.68;59.77;100508.44;4485109;32;20012;-84
2022/10/13 03:55:57;;;;;;;;;;;;;;;10.65;59.77;100516.31;4469902;32;20045;-84
2022/10/13 03:58:23;;;;;;;;;;;;;;;10.62;59.76;100514.59;4469972;32;29627;-85
2022/10/13 04:00:48;;;;;;;;;;;;;;;10.65;59.77;100517.16;4461639;32;19983;-82
2022/10/13 04:03:14;;;;;;;;;;;;;;;10.49;59.76;100520.09;4467948;32;19986;-82
2022/10/13 04:05:39;;;;;;;;;;;;;;;10.56;59.76;100511.25;4470285;32;19993;-83
2022/10/13 04:08:04;;;;;;;;;;;;;;;10.52;59.76;100507.00;4469465;32;19980;-84
2022/10/13 04:10:29;;;;;;;;;;;;;;;10.52;59.76;100514.81;4474186;32;28787;-84
2022/10/13 04:12:55;;;;;;;;;;;;;;;10.36;59.75;100514.25;4459757;32;36681;-84
2022/10/13 04:15:20;;;;;;;;;;;;;;;10.53;59.76;100509.59;4457904;32;27615;-84
2022/10/13 04:17:45;;;;;;;;;;;;;;;10.40;59.75;100508.09;4456927;32;34399;-84
2022/10/13 04:20:10;;;;;;;;;;;;;;;10.28;59.75;100511.78;4451329;32;36219;-83
2022/10/13 04:22:35;;;;;;;;;;;;;;;10.32;59.76;100510.00;4481235;32;30924;-84
2022/10/13 04:25:01;;;;;;;;;;;;;;;10.22;59.74;100508.47;4484813;32;20096;-83
2022/10/13 04:27:26;;;;;;;;;;;;;;;10.28;59.75;100505.75;4468511;32;35433;-84
2022/10/13 04:29:51;;;;;;;;;;;;;;;10.34;59.75;100508.22;4453989;32;20250;-82
2022/10/13 04:32:17;;;;;;;;;;;;;;;10.25;59.75;100509.25;4465686;32;19999;-82
2022/10/13 04:34:42;;;;;;;;;;;;;;;10.29;59.75;100507.44;4483945;32;23567;-83
2022/10/13 04:37:07;;;;;;;;;;;;;;;10.08;59.73;100514.72;4484141;32;21317;-82
2022/10/13 04:39:32;;;;;;;;;;;;;;;10.06;59.74;100513.91;4468731;32;36682;-83
2022/10/13 04:41:57;;;;;;;;;;;;;;;10.13;59.74;100510.28;4460813;32;32209;-82
2022/10/13 04:44:23;;;;;;;;;;;;;;;10.17;59.75;100511.09;4457431;32;20031;-82
2022/10/13 04:46:48;;;;;;;;;;;;;;;10.16;59.75;100505.03;4483433;32;20029;-82
2022/10/13 04:49:14;;;;;;;;;;;;;;;10.15;59.73;100513.72;4473826;32;19992;-82
2022/10/13 04:51:40;;;;;;;;;;;;;;;10.04;59.74;100512.22;4468833;32;19995;-83
2022/10/13 04:54:05;;;;;;;;;;;;;;;10.07;59.73;100513.00;4463105;32;35835;-82
2022/10/13 04:56:30;;;;;;;;;;;;;;;10.11;59.74;100514.66;4470343;32;20332;-82
2022/10/13 04:58:56;;;;;;;;;;;;;;;10.04;59.74;100512.22;4458517;32;35384;-83
2022/10/13 05:01:22;;;;;;;;;;;;;;;9.98;59.73;100515.78;4470272;32;19988;-83
2022/10/13 05:03:49;;;;;;;;;;;;;;;9.94;59.74;100514.13;4483960;32;20010;-84
2022/10/13 05:06:22;;;;;;;;;;;;;;;10.01;59.73;100517.47;4485274;32;19957;-83
2022/10/13 05:08:47;;;;;;;;;;;;;;;9.94;59.72;100513.28;4455599;32;19965;-83
2022/10/13 05:11:12;;;;;;;;;;;;;;;10.00;59.73;100514.00;4454902;32;19996;-83
2022/10/13 05:13:37;;;;;;;;;;;;;;;9.95;59.73;100515.84;4469009;32;35635;-82
2022/10/13 05:16:07;;;;;;;;;;;;;;;10.00;59.73;100510.56;4470008;32;20044;-83
2022/10/13 05:18:32;;;;;;;;;;;;;;;10.03;59.73;100507.91;4481384;32;19984;-84
2022/10/13 05:21:04;;;;;;;;;;;;;;;10.09;59.73;100505.19;4468110;32;20030;-84
2022/10/13 05:23:29;;;;;;;;;;;;;;;10.12;59.74;100508.56;4465224;32;19980;-83
2022/10/13 05:25:54;;;;;;;;;;;;;;;10.15;59.74;100508.50;4468450;32;20078;-83
2022/10/13 05:28:20;;;;;;;;;;;;;;;10.22;59.74;100511.06;4469230;32;32857;-84
2022/10/13 05:30:45;;;;;;;;;;;;;;;10.28;59.75;100514.41;4473294;32;19981;-84
2022/10/13 05:33:10;;;;;;;;;;;;;;;10.20;59.75;100518.00;4484517;32;19981;-84
2022/10/13 05:35:36;;;;;;;;;;;;;;;10.33;59.76;100519.50;4473800;32;20098;-82
2022/10/13 05:38:01;;;;;;;;;;;;;;;10.54;59.75;100515.66;4458310;32;20341;-83
2022/10/13 05:40:27;;;;;;;;;;;;;;;10.51;59.76;100511.34;4475094;32;20301;-81
2022/10/13 05:42:52;;;;;;;;;;;;;;;10.68;59.77;100514.50;4482272;32;20080;-82
2022/10/13 05:45:17;;;;;;;;;;;;;;;10.41;59.76;100517.66;4476803;32;20273;-82
2022/10/13 05:47:42;;;;;;;;;;;;;;;10.61;59.76;100517.22;4458053;32;32337;-82
2022/10/13 05:50:08;;;;;;;;;;;;;;;10.66;59.77;100520.62;4463929;32;35063;-82
2022/10/13 05:52:33;;;;;;;;;;;;;;;10.68;59.76;100517.09;4478745;32;20250;-83
2022/10/13 05:54:59;;;;;;;;;;;;;;;10.66;59.77;100516.28;4483771;32;20005;-82
2022/10/13 05:57:29;;;;;;;;;;;;;;;10.60;59.76;100526.78;4474615;32;19977;-82
2022/10/13 05:59:56;;;;;;;;;;;;;;;10.85;59.77;100526.28;4471190;32;19991;-82
2022/10/13 06:02:22;;;;;;;;;;;;;;;11.15;59.79;100520.44;4461995;32;19997;-83
2022/10/13 06:04:48;;;;;;;;;;;;;;;11.04;59.79;100522.41;4455682;32;20040;-83
2022/10/13 06:07:13;;;;;;;;;;;;;;;10.90;59.78;100529.69;4469247;32;20000;-83
2022/10/13 06:09:39;;;;;;;;;;;;;;;10.87;59.78;100537.53;4483411;32;28106;-82
2022/10/13 06:12:04;;;;;;;;;;;;;;;11.03;59.79;100533.72;4465026;32;20000;-82
2022/10/13 06:14:30;;;;;;;;;;;;;;;11.07;59.79;100537.97;4477687;32;20564;-82
2022/10/13 06:16:55;;;;;;;;;;;;;;;11.17;59.79;100534.31;4469129;32;19988;-82
2022/10/13 06:19:20;;;;;;;;;;;;;;;11.43;59.80;100538.06;4483381;32;36736;-82
2022/10/13 06:21:45;;;;;;;;;;;;;;;11.42;59.81;100538.97;4482979;32;31686;-82
2022/10/13 06:24:10;;;;;;;;;;;;;;;11.34;59.81;100542.56;4477617;32;30810;-82
2022/10/13 06:26:36;;;;;;;;;;;;;;;11.63;59.82;100535.84;4468345;32;20035;-82
2022/10/13 06:29:01;;;;;;;;;;;;;;;11.60;59.81;100536.78;4467251;32;33910;-82
2022/10/13 06:31:26;;;;;;;;;;;;;;;11.66;59.82;100538.37;4457403;32;19987;-82
2022/10/13 06:33:51;;;;;;;;;;;;;;;11.58;59.82;100525.50;4468997;32;23586;-82
2022/10/13 06:36:17;;;;;;;;;;;;;;;11.81;59.83;100539.78;4472024;32;29588;-82
2022/10/13 06:38:42;;;;;;;;;;;;;;;11.92;59.84;100527.34;4460600;32;20004;-82
2022/10/13 06:41:07;;;;;;;;;;;;;;;12.01;59.84;100531.47;4467032;32;20336;-82
2022/10/13 06:43:32;;;;;;;;;;;;;;;12.20;59.86;100536.19;4483143;32;32290;-82
2022/10/13 06:45:58;;;;;;;;;;;;;;;12.31;59.86;100527.22;4471487;32;19988;-82
2022/10/13 06:48:23;;;;;;;;;;;;;;;12.34;59.86;100533.22;4453857;32;20313;-82
2022/10/13 06:50:49;;;;;;;;;;;;;;;12.55;59.87;100526.56;4478045;32;19992;-82
2022/10/13 06:53:14;;;;;;;;;;;;;;;12.74;59.89;100532.09;4471446;32;35215;-82
2022/10/13 06:55:42;;;;;;;;;;;;;;;12.81;59.88;100538.87;4483928;32;20003;-82
2022/10/13 06:58:07;;;;;;;;;;;;;;;12.75;59.89;100534.66;4458620;32;19996;-82
2022/10/13 07:00:32;;;;;;;;;;;;;;;12.94;59.89;100526.31;4484040;32;20007;-83
2022/10/13 07:02:57;;;;;;;;;;;;;;;13.07;59.90;100530.28;4460823;32;19976;-82
2022/10/13 07:05:22;;;;;;;;;;;;;;;13.19;59.90;100527.31;4486644;32;20006;-82
2022/10/13 07:07:50;;;;;;;;;;;;;;;13.28;59.91;100523.59;4486242;32;29689;-83
2022/10/13 07:10:15;;;;;;;;;;;;;;;13.61;59.93;100516.44;4482044;32;20341;-83
2022/10/13 07:12:40;;;;;;;;;;;;;;;13.89;59.95;100521.63;4480438;32;19972;-83
2022/10/13 07:15:06;;;;;;;;;;;;;;;14.09;59.96;100520.03;4478470;32;20451;-83
2022/10/13 07:17:31;;;;;;;;;;;;;;;13.99;59.94;100517.81;4471062;32;19973;-83
2022/10/13 07:19:56;;;;;;;;;;;;;;;14.12;59.95;100513.84;4469873;32;29501;-84
2022/10/13 07:22:21;;;;;;;;;;;;;;;14.43;59.97;100513.66;4475378;32;20332;-83
2022/10/13 07:24:47;;;;;;;;;;;;;;;14.45;59.97;100508.37;4470558;32;28351;-83
2022/10/13 07:27:12;;;;;;;;;;;;;;;14.70;59.98;100514.44;4480432;32;19993;-84
2022/10/13 07:29:37;;;;;;;;;;;;;;;14.83;59.99;100506.97;4468850;32;36755;-83
2022/10/13 07:32:02;;;;;;;;;;;;;;;15.01;60.00;100506.28;4478830;32;36249;-83
2022/10/13 07:34:28;;;;;;;;;;;;;;;15.08;60.00;100507.75;4459992;32;19988;-83
2022/10/13 07:36:53;;;;;;;;;;;;;;;15.11;60.01;100506.75;4470827;32;25502;-83
2022/10/13 07:39:18;;;;;;;;;;;;;;;15.47;60.03;100500.09;4474341;32;26062;-84
2022/10/13 07:41:43;;;;;;;;;;;;;;;15.63;60.04;100511.72;4478480;32;31997;-84
2022/10/13 07:44:08;;;;;;;;;;;;;;;15.61;60.03;100510.03;4480766;32;20008;-84
2022/10/13 07:46:34;;;;;;;;;;;;;;;15.80;60.05;100505.75;4480574;32;20314;-84
2022/10/13 07:48:59;;;;;;;;;;;;;;;15.95;60.06;100505.13;4478330;32;31671;-84
2022/10/13 07:51:24;;;;;;;;;;;;;;;15.64;60.04;100509.94;4485301;32;19965;-84
2022/10/13 07:53:49;;;;;;;;;;;;;;;15.91;60.05;100500.06;4470601;32;19988;-84
2022/10/13 07:56:15;;;;;;;;;;;;;;;15.87;60.05;100504.59;4470761;32;19988;-84
2022/10/13 07:58:41;;;;;;;;;;;;;;;16.24;60.06;100503.03;4484234;32;37396;-84
2022/10/13 08:01:06;;;;;;;;;;;;;;;16.25;60.07;100502.94;4485364;32;19988;-84
2022/10/13 08:03:31;;;;;;;;;;;;;;;16.49;60.08;100506.28;4457406;32;20007;-84
2022/10/13 08:05:58;;;;;;;;;;;;;;;16.33;60.08;100496.53;4469787;32;32766;-84
2022/10/13 08:08:23;;;;;;;;;;;;;;;16.50;60.08;100502.72;4484948;32;19976;-84
2022/10/13 08:10:48;;;;;;;;;;;;;;;16.54;60.08;100501.66;4476627;32;34934;-84
2022/10/13 08:13:13;;;;;;;;;;;;;;;16.76;60.09;100504.22;4466500;32;20014;-84
2022/10/13 08:15:39;;;;;;;;;;;;;;;16.74;60.09;100498.19;4479205;32;19980;-83
2022/10/13 08:18:05;;;;;;;;;;;;;;;16.80;60.09;100490.03;4479809;32;20068;-84
2022/10/13 08:20:30;;;;;;;;;;;;;;;16.92;60.11;100491.22;4458624;32;31008;-84
2022/10/13 08:22:55;;;;;;;;;;;;;;;16.92;60.11;100485.97;4484032;32;32834;-84
2022/10/13 08:25:20;;;;;;;;;;;;;;;16.79;60.10;100482.19;4473546;32;20000;-84
2022/10/13 08:27:46;;;;;;;;;;;;;;;16.94;60.11;100488.53;4461775;32;20057;-84
2022/10/13 08:30:11;;;;;;;;;;;;;;;17.06;60.11;100490.59;4473541;32;20004;-84
2022/10/13 08:32:36;;;;;;;;;;;;;;;17.14;60.11;100478.78;4480298;32;20028;-84
2022/10/13 08:35:01;;;;;;;;;;;;;;;17.05;60.11;100475.75;4469350;32;32776;-83
2022/10/13 08:37:26;;;;;;;;;;;;;;;17.07;60.11;100471.25;4468762;32;23001;-83
2022/10/13 08:39:54;;;;;;;;;;;;;;;17.30;60.12;100476.28;4460074;32;30412;-83
2022/10/13 08:42:20;;;;;;;;;;;;;;;17.22;60.12;100477.56;4449383;32;19980;-83
2022/10/13 08:44:49;;;;;;;;;;;;;;;17.62;60.15;100464.16;4480213;32;19995;-83
2022/10/13 08:47:15;;;;;;;;;;;;;;;17.33;60.13;100476.12;4477932;32;20036;-83
2022/10/13 08:49:40;;;;;;;;;;;;;;;17.52;60.13;100462.94;4470022;32;20012;-83
2022/10/13 08:52:05;;;;;;;;;;;;;;;17.78;60.14;100459.03;4469426;32;34778;-83
2022/10/13 08:54:30;;;;;;;;;;;;;;;17.79;60.15;100460.75;4459299;32;19989;-83
2022/10/13 08:56:56;;;;;;;;;;;;;;;17.77;60.14;100458.19;4470100;32;20245;-83
2022/10/13 08:59:21;;;;;;;;;;;;;;;17.74;60.15;100463.59;4473512;32;29763;-83
2022/10/13 09:01:50;;;;;;;;;;;;;;;17.96;60.16;100450.16;4473017;32;20394;-83
2022/10/13 09:04:32;;;;;;;;;;;;;;;18.06;60.16;100456.69;4461788;32;20032;-83
2022/10/13 09:07:14;;;;;;;;;;;;;;;18.28;60.18;100456.44;4469972;32;19988;-83
2022/10/13 09:09:39;;;;;;;;;;;;;;;18.47;60.19;100444.91;4484494;32;19995;-83
2022/10/13 09:12:05;;;;;;;;;;;;;;;18.37;60.18;100455.06;4453664;32;34423;-83
2022/10/13 09:14:31;;;;;;;;;;;;;;;18.52;60.18;100454.28;4463995;32;20000;-83
2022/10/13 09:17:09;;;;;;;;;;;;;;;18.65;60.19;100455.34;4484714;32;20036;-83
2022/10/13 09:19:35;;;;;;;;;;;;;;;18.80;60.20;100447.53;4470202;32;20315;-83
2022/10/13 09:22:19;;;;;;;;;;;;;;;18.65;60.19;100439.50;4470027;32;19980;-83
2022/10/13 09:24:44;;;;;;;;;;;;;;;18.89;60.21;100441.75;4469383;32;19988;-83
2022/10/13 09:27:13;;;;;;;;;;;;;;;19.01;60.22;100435.78;4464373;32;26245;-83
2022/10/13 09:29:39;;;;;;;;;;;;;;;19.14;60.22;100431.50;4459035;32;20291;-83
2022/10/13 09:32:15;;;;;;;;;;;;;;;19.20;60.23;100435.62;4464249;32;20010;-83
2022/10/13 09:34:40;;;;;;;;;;;;;;;19.29;60.23;100438.56;4484373;32;20317;-83
2022/10/13 09:37:05;;;;;;;;;;;;;;;19.27;60.23;100434.31;4483848;32;21111;-83
2022/10/13 09:39:31;;;;;;;;;;;;;;;19.50;60.24;100433.00;4455900;32;19977;-83
2022/10/13 09:42:19;;;;;;;;;;;;;;;19.63;60.25;100426.06;4468594;32;19980;-83
2022/10/13 09:44:44;;;;;;;;;;;;;;;19.73;60.26;100429.03;4483317;32;19977;-83
2022/10/13 09:47:15;;;;;;;;;;;;;;;19.68;60.25;100431.97;4469256;32;20211;-83
2022/10/13 09:49:41;;;;;;;;;;;;;;;19.69;60.25;100428.38;4456272;32;19988;-83
2022/10/13 09:52:13;;;;;;;;;;;;;;;19.86;60.27;100422.94;4476284;32;20036;-83
2022/10/13 09:54:39;;;;;;;;;;;;;;;19.77;60.25;100426.13;4467987;32;20025;-83
2022/10/13 09:57:16;;;;;;;;;;;;;;;19.85;60.26;100425.66;4468466;32;19980;-83
2022/10/13 09:59:51;;;;;;;;;;;;;;;19.73;60.26;100427.25;4480816;32;20315;-83
2022/10/13 10:02:22;;;;;;;;;;;;;;;19.90;60.26;100426.25;4484169;32;20004;-83
2022/10/13 10:04:47;;;;;;;;;;;;;;;20.05;60.28;100422.69;4473464;32;19957;-82
2022/10/13 10:07:13;;;;;;;;;;;;;;;20.26;60.28;100425.81;4464542;32;20000;-83
2022/10/13 10:09:40;;;;;;;;;;;;;;;20.34;60.29;100414.75;4462403;32;20046;-83
2022/10/13 10:12:05;;;;;;;;;;;;;;;20.48;60.29;100417.44;4458648;32;20040;-83
2022/10/13 10:14:37;;;;;;;;;;;;;;;20.80;60.32;100415.41;4460066;32;19996;-84
2022/10/13 10:17:05;;;;;;;;;;;;;;;20.66;60.30;100408.34;4468468;32;19984;-83
2022/10/13 10:19:49;;;;;;;;;;;;;;;20.85;60.31;100410.69;4475263;32;19976;-83
2022/10/13 10:22:20;;;;;;;;;;;;;;;21.01;60.33;100402.59;4483531;32;20037;-83
2022/10/13 10:24:58;;;;;;;;;;;;;;;21.03;60.33;100398.03;4469549;32;19976;-83
2022/10/13 10:27:25;;;;;;;;;;;;;;;21.18;60.34;100397.06;4477641;32;20000;-83
2022/10/13 10:29:59;;;;;;;;;;;;;;;21.20;60.34;100397.78;4458190;32;20011;-83
2022/10/13 10:32:26;;;;;;;;;;;;;;;21.22;60.33;100392.41;4454749;32;19981;-83
2022/10/13 10:35:11;;;;;;;;;;;;;;;21.32;60.34;100393.53;4463224;32;19973;-83
2022/10/13 10:37:47;;;;;;;;;;;;;;;21.43;60.35;100389.22;4480181;32;19981;-83
2022/10/13 10:40:24;;;;;;;;;;;;;;;21.50;60.36;100389.63;4477547;32;19992;-83
2022/10/13 10:43:10;;;;;;;;;;;;;;;21.53;60.35;100386.81;4485367;32;20033;-83
2022/10/13 10:45:36;;;;;;;;;;;;;;;21.69;60.36;100376.00;4445351;32;20293;-83
2022/10/13 10:48:03;;;;;;;;;;;;;;;21.76;60.36;100377.28;4457545;32;19989;-83
2022/10/13 10:50:29;;;;;;;;;;;;;;;21.88;60.37;100368.50;4468271;32;20010;-83
2022/10/13 10:53:05;;;;;;;;;;;;;;;21.87;60.37;100374.75;4466696;32;19973;-83
2022/10/13 10:55:33;;;;;;;;;;;;;;;21.92;60.37;100366.47;4460573;32;20015;-83
2022/10/13 10:58:04;;;;;;;;;;;;;;;22.02;60.37;100364.91;4468121;32;20027;-83
2022/10/13 11:00:29;;;;;;;;;;;;;;;22.10;60.39;100357.28;4461095;32;20277;-83
2022/10/13 11:02:59;;;;;;;;;;;;;;;22.18;60.38;100362.03;4467494;32;37042;-84
2022/10/13 11:05:24;;;;;;;;;;;;;;;22.26;60.39;100352.59;4468418;32;20037;-83
2022/10/13 11:07:49;;;;;;;;;;;;;;;22.46;60.40;100345.84;4459705;32;19989;-83
2022/10/13 11:10:15;;;;;;;;;;;;;;;22.20;60.39;100353.00;4457735;32;20375;-83
2022/10/13 11:12:46;;;;;;;;;;;;;;;22.30;60.39;100345.28;4469703;32;20036;-83
2022/10/13 11:15:12;;;;;;;;;;;;;;;22.40;60.41;100335.69;4469560;32;19969;-83
2022/10/13 11:17:37;;;;;;;;;;;;;;;22.36;60.40;100337.72;4468097;32;20086;-83
2022/10/13 11:20:18;;;;;;;;;;;;;;;22.54;60.41;100334.72;4469862;32;19995;-83
2022/10/13 11:22:58;;;;;;;;;;;;;;;22.40;60.40;100329.53;4462225;32;19981;-83
2022/10/13 11:25:39;;;;;;;;;;;;;;;22.52;60.41;100323.38;4467871;32;19976;-83
2022/10/13 11:28:20;;;;;;;;;;;;;;;22.58;60.41;100317.59;4459184;32;20322;-83
2022/10/13 11:30:49;;;;;;;;;;;;;;;22.61;60.42;100322.69;4453887;32;20029;-83
2022/10/13 11:33:33;;;;;;;;;;;;;;;22.73;60.43;100323.59;4459325;32;19999;-83
2022/10/13 11:36:17;;;;;;;;;;;;;;;22.36;60.40;100316.50;4469450;32;20007;-83
2022/10/13 11:38:42;;;;;;;;;;;;;;;22.54;60.41;100314.31;4469485;32;20000;-83
2022/10/13 11:41:07;;;;;;;;;;;;;;;22.63;60.42;100313.66;4453825;32;32606;-83
2022/10/13 11:43:51;;;;;;;;;;;;;;;22.73;60.43;100313.84;4459385;32;19989;-83
2022/10/13 11:46:35;;;;;;;;;;;;;;;22.91;60.43;100307.19;4472159;32;19968;-83
2022/10/13 11:49:14;;;;;;;;;;;;;;;22.75;60.42;100296.00;4474998;32;20001;-83
2022/10/13 11:51:49;;;;;;;;;;;;;;;22.73;60.43;100300.56;4456924;32;19989;-83
2022/10/13 11:54:18;;;;;;;;;;;;;;;22.83;60.42;100290.12;4467814;32;19981;-83
2022/10/13 11:56:50;;;;;;;;;;;;;;;22.81;60.43;100292.03;4470331;32;19996;-83
2022/10/13 11:59:22;;;;;;;;;;;;;;;22.72;60.42;100284.75;4470722;32;19996;-83
2022/10/13 12:01:51;;;;;;;;;;;;;;;22.87;60.43;100286.28;4484891;32;20501;-83
2022/10/13 12:04:18;;;;;;;;;;;;;;;22.83;60.43;100279.53;4475847;32;19976;-82
2022/10/13 12:06:44;;;;;;;;;;;;;;;22.81;60.43;100281.41;4457865;32;20071;-83
2022/10/13 12:09:16;;;;;;;;;;;;;;;22.83;60.43;100282.19;4470746;32;19981;-83
2022/10/13 12:11:41;;;;;;;;;;;;;;;23.01;60.43;100282.62;4470536;32;20090;-83
2022/10/13 12:14:15;;;;;;;;;;;;;;;22.91;60.43;100282.44;4456534;32;36846;-85
2022/10/13 12:16:56;;;;;;;;;;;;;;;23.02;60.44;100277.19;4471365;32;19977;-96
2022/10/13 12:19:28;;;;;;;;;;;;;;;22.89;60.43;100271.09;4471585;32;19976;-95
2022/10/13 12:22:01;;;;;;;;;;;;;;;23.04;60.44;100271.75;4470127;32;20019;-96
2022/10/13 12:24:51;;;;;;;;;;;;;;;22.98;60.44;100266.91;4485206;31;19978;-96
2022/10/13 12:31:02;;;;;;;;;;;;;;;22.84;60.43;100260.81;4487470;32;19985;-94
2022/10/13 12:33:52;;;;;;;;;;;;;;;22.96;60.44;100254.59;4465701;32;19981;-93
2022/10/13 12:36:21;;;;;;;;;;;;;;;22.95;60.44;100258.22;4470740;32;19980;-91
2022/10/13 12:39:08;;;;;;;;;;;;;;;22.92;60.43;100247.81;4459938;32;19949;-95
2022/10/13 12:41:35;;;;;;;;;;;;;;;22.94;60.43;100253.00;4469968;32;20038;-90
2022/10/13 12:44:01;;;;;;;;;;;;;;;22.87;60.43;100243.81;4458470;32;20004;-91
2022/10/13 12:46:35;;;;;;;;;;;;;;;22.93;60.44;100238.88;4461482;32;19968;-90